Mitchell, Oregon
Current Conditions -  °F | °C
As of 1:15 PM on Sunday 23 Nov 2014 (Local Time) from KS39 Reporting Station
Clear Clear  
Wind Chill: 43°   Ceiling: Unl
Heat Index: 46°   Visibility: 10mi
Dew Point: 30°   Wind: 7mph
Humidity: 53%   Direction: 220°SW
Pressure: 30.23"   Gusts: 13mph
Location:  44.57°N, 120.15°W
Report Text: KS39 232115Z AUTO 22006G11KT 10SM CLR 08/M01 A3023 RMK AO2
Loading
Personal Weather Stations






























Interactive Weather Map New forecast layout! Learn more

10-Day Weather Forecast

Advertisements
Track Severe Weather on mobile